Gilboa, New York
Current Conditions -  °F | °C
As of 3:51 AM on Sunday 26 Oct 2014 (Local Time) from KALB Reporting Station
Overcast Overcast  
Wind Chill: 46°   Ceiling: 11000
Heat Index: 48°   Visibility: 10mi
Dew Point: 44°   Wind: 5mph
Humidity: 86%   Direction: 130°SE
Pressure: 29.51"   Gusts: NA
Location:  42.4°N, 74.45°W
Report Text: KALB 260751Z 13004KT 10SM FEW055 BKN110 BKN130 OVC170 09/07 A2951 RMK AO2 SLP994 OCNL BINOVC T00890067 $
Loading
Personal Weather Stations






























Interactive Weather Map
Tropical Storm Tracking
New forecast layout! Learn more

10-Day Weather Forecast

Advertisements
Track Severe Weather on mobile